Terminal Aerodrome Forecast
Issued by NWS

Home | Current Version | Previous Version | Graphics & Text | Print | Product List | Glossary On
Versions: 1 2 3 4 5 6 7 8 9 10 11 12 13 14 15 16 17 18 19 20 21 22
013
FTUS43 KFGF 241121 AAA
TAFBJI
TAF AMD
KBJI 241121Z 2411/2512 00000KT P6SM VCSH BKN200
     FM241500 00000KT P6SM SCT200
     FM242000 20005KT P6SM VCTS SCT060CB BKN200
     FM242300 09005KT P6SM SCT200=

USA.gov is the U.S. government's official web portal to all federal, state and local government web resources and services.